首页
METAR-TAF:

METAR-TAF

机场 :

Wittmund, 德国

纬度: 53-33N, 经度: 007-40E, 海拔: 8米

当前天气观测

该预报发布于1小时和9分钟前的03:20 UTC
风速4节,风向南转南东
温度 2°C
湿度 93%
气压 1001 hPa
能見度: 6000
少量云层高于2000英尺
浅雾

METAR: ETNT 140320Z 16004KT 6000 MIFG FEW020 02/01 Q1001 WHT

时间: 05:29 (04:29 UTC)

预报

该预报发布于2小时和29分钟前的02:00 UTC
预报有效从14日的 03点(UTC)到 14日的 12点(UTC)
风速5节,风向
能见度10公里或以上
散云层高于5000英尺
短暂存在
从 14日的 03点(UTC)到 14日的 09点(UTC)
风速2节,风向多变
能見度: 2000
散云层高于500英尺
碎片雾
几率 30%
从 14日的 03点(UTC)到 14日的 09点(UTC)
风速2节,风向多变
能見度: 0500
多云层高于100英尺

TAF: ETNT 140200Z 1403/1412 17005KT 9999 NSW SCT050 TEMPO 1403/1409 VRB02KT 2000 BCFG SCT005 PROB30 1403/1409 VRB02KT 0500 FG BKN001 BY ETGL

超过4000个机场的气象观测和天气预报(METAR&TAF报告)。

可查询的气象台以黄色和红色小点在地图上表示。

将鼠标移到小点上方,可查看气象台名称。

然后点击查看天气观测和预报。

如需切换地图:点击带黑十字的绿色按钮放大地图;点击带横线的绿色按钮缩小地图;或者点击绿色箭头查看邻近地区的地图。


METAR-TAF: